Airfield :
LOGIN :

Register | Disclaimer

   EN    FR    IT 

 










Legend :    VFR   Marginal VFR   IFR   Intensive IFR   Very Intensive IFR
Visi :
Ceiling :
>= 8 km
>= 3000ft
5 to 8 km
1000 to 3000 ft
1500m to 5 km
500 to 1000 ft
800 to 1500m
200 to 500 ft
< 800m
< 200 ft
Symbols :   Thunderstorms  Fog  Heavy snow  Heavy precipitations  Wind > 20 kt
SIGMETs :     Misc.  Thunderstorms  Icing  Turbulence  Mountain Waves  Volcanic Ashes







- Airport Elevation : 919 ft
- IATA code : IFO


UKLI - Ivano Frankivs'k

CURRENT METAR :
  • 161330Z 12003MPS CAVOK 22/04 Q1024 R28/090070 NOSIG

EXPIRED METARs :
  • 161300Z 10003MPS 040V130 CAVOK 21/04 Q1024 R10/090070 NOSIG
  • 161230Z 09003MPS 030V140 CAVOK 21/04 Q1024 R10/090070 NOSIG
  • 161200Z 10003MPS 060V150 CAVOK 21/05 Q1024 R28/090070 NOSIG
  • 161130Z 11002MPS 050V150 CAVOK 21/05 Q1024 R28/090070 NOSIG
  • 161100Z VRB02MPS CAVOK 20/06 Q1024 R28/090070 NOSIG

TAF TAF UKLI
Valid from the 16 at 12:00 until the 16 at 21:00 UTC


161102Z 1612/1621 12004MPS 9999 SCT030
TEMPO 1615/1621 VRB01MPS 2100 BR
No reported NOTAMs for that airfield.



MET'MAP, your aeronautical weather chart ! - Copyright ORBIFLY December 2007 - Disclaimer

ORBIFLY MET'MAP TEAM :

Programming & Development : Alexandra Zaïnal
Concept & Development : Baudouin d'Aumeries
Co-Development & Prog : Marc-Olivier Méhu
Technical & hardware support : Manuel Goepfert

Contact : metmap@orbifly.com




SOURCES & CREDITS :

   NOAA